sensor_id;sensor_type;location;lat;lon;timestamp;P1;durP1;ratioP1;P2;durP2;ratioP2
36191;SDS011;22233;42.708;23.360;2023-03-01T00:01:03;3.90;;;1.80;;
36191;SDS011;22233;42.708;23.360;2023-03-01T00:03:31;3.15;;;1.85;;
36191;SDS011;22233;42.708;23.360;2023-03-01T00:05:57;3.15;;;1.80;;
36191;SDS011;22233;42.708;23.360;2023-03-01T00:08:22;4.93;;;1.75;;
36191;SDS011;22233;42.708;23.360;2023-03-01T00:10:48;3.38;;;1.77;;
36191;SDS011;22233;42.708;23.360;2023-03-01T00:13:13;2.88;;;1.85;;
36191;SDS011;22233;42.708;23.360;2023-03-01T00:15:39;2.25;;;1.48;;
36191;SDS011;22233;42.708;23.360;2023-03-01T00:18:06;2.30;;;1.50;;
36191;SDS011;22233;42.708;23.360;2023-03-01T00:20:33;2.47;;;1.70;;
36191;SDS011;22233;42.708;23.360;2023-03-01T00:22:59;1.33;;;1.13;;
36191;SDS011;22233;42.708;23.360;2023-03-01T00:25:24;3.75;;;1.50;;
36191;SDS011;22233;42.708;23.360;2023-03-01T00:27:49;2.95;;;1.65;;
36191;SDS011;22233;42.708;23.360;2023-03-01T00:30:15;2.45;;;1.48;;
36191;SDS011;22233;42.708;23.360;2023-03-01T00:32:40;2.70;;;1.70;;
36191;SDS011;22233;42.708;23.360;2023-03-01T00:35:06;2.20;;;1.45;;
36191;SDS011;22233;42.708;23.360;2023-03-01T00:37:32;2.30;;;1.88;;
36191;SDS011;22233;42.708;23.360;2023-03-01T00:39:57;2.22;;;1.40;;
36191;SDS011;22233;42.708;23.360;2023-03-01T00:42:22;2.05;;;1.67;;
36191;SDS011;22233;42.708;23.360;2023-03-01T00:44:48;1.95;;;1.40;;
36191;SDS011;22233;42.708;23.360;2023-03-01T00:47:13;1.45;;;1.27;;
36191;SDS011;22233;42.708;23.360;2023-03-01T00:49:39;2.30;;;1.52;;
36191;SDS011;22233;42.708;23.360;2023-03-01T00:52:04;2.05;;;1.55;;
36191;SDS011;22233;42.708;23.360;2023-03-01T00:54:30;2.17;;;1.45;;
36191;SDS011;22233;42.708;23.360;2023-03-01T00:56:55;1.75;;;1.40;;
36191;SDS011;22233;42.708;23.360;2023-03-01T00:59:21;2.55;;;1.45;;
36191;SDS011;22233;42.708;23.360;2023-03-01T01:01:46;1.80;;;1.40;;
36191;SDS011;22233;42.708;23.360;2023-03-01T01:04:12;2.03;;;1.33;;
36191;SDS011;22233;42.708;23.360;2023-03-01T01:06:39;1.40;;;1.05;;
36191;SDS011;22233;42.708;23.360;2023-03-01T01:09:08;1.65;;;1.20;;
36191;SDS011;22233;42.708;23.360;2023-03-01T01:11:34;1.73;;;1.20;;
36191;SDS011;22233;42.708;23.360;2023-03-01T01:14:01;2.10;;;1.40;;
36191;SDS011;22233;42.708;23.360;2023-03-01T01:16:27;2.08;;;1.33;;
36191;SDS011;22233;42.708;23.360;2023-03-01T01:18:55;2.13;;;1.90;;
36191;SDS011;22233;42.708;23.360;2023-03-01T01:21:22;2.03;;;1.48;;
36191;SDS011;22233;42.708;23.360;2023-03-01T01:26:16;2.42;;;1.40;;
36191;SDS011;22233;42.708;23.360;2023-03-01T01:28:44;3.35;;;1.52;;
36191;SDS011;22233;42.708;23.360;2023-03-01T01:31:10;2.47;;;1.63;;
36191;SDS011;22233;42.708;23.360;2023-03-01T01:33:35;2.30;;;1.50;;
36191;SDS011;22233;42.708;23.360;2023-03-01T01:36:02;3.67;;;1.70;;
36191;SDS011;22233;42.708;23.360;2023-03-01T01:38:29;1.90;;;1.48;;
36191;SDS011;22233;42.708;23.360;2023-03-01T01:40:54;2.47;;;1.67;;
36191;SDS011;22233;42.708;23.360;2023-03-01T01:43:24;1.92;;;1.40;;
36191;SDS011;22233;42.708;23.360;2023-03-01T01:45:56;2.80;;;1.83;;
36191;SDS011;22233;42.708;23.360;2023-03-01T01:48:32;2.72;;;1.95;;
36191;SDS011;22233;42.708;23.360;2023-03-01T01:51:08;2.72;;;1.95;;
36191;SDS011;22233;42.708;23.360;2023-03-01T01:53:38;3.35;;;2.35;;
36191;SDS011;22233;42.708;23.360;2023-03-01T01:56:05;1.60;;;1.45;;
36191;SDS011;22233;42.708;23.360;2023-03-01T01:58:33;1.40;;;1.17;;
36191;SDS011;22233;42.708;23.360;2023-03-01T02:01:00;1.20;;;1.00;;
36191;SDS011;22233;42.708;23.360;2023-03-01T02:03:28;1.55;;;1.27;;
36191;SDS011;22233;42.708;23.360;2023-03-01T02:06:03;2.28;;;1.20;;
36191;SDS011;22233;42.708;23.360;2023-03-01T02:08:32;1.40;;;1.13;;
36191;SDS011;22233;42.708;23.360;2023-03-01T02:11:00;1.42;;;1.08;;
36191;SDS011;22233;42.708;23.360;2023-03-01T02:13:26;2.47;;;1.60;;
36191;SDS011;22233;42.708;23.360;2023-03-01T02:15:52;1.60;;;1.40;;
36191;SDS011;22233;42.708;23.360;2023-03-01T02:18:18;1.92;;;1.52;;
36191;SDS011;22233;42.708;23.360;2023-03-01T02:20:56;0.90;;;0.80;;
36191;SDS011;22233;42.708;23.360;2023-03-01T02:23:23;1.33;;;1.13;;
36191;SDS011;22233;42.708;23.360;2023-03-01T02:31:10;2.10;;;1.60;;
36191;SDS011;22233;42.708;23.360;2023-03-01T02:34:00;1.98;;;1.55;;
36191;SDS011;22233;42.708;23.360;2023-03-01T02:36:30;2.13;;;1.65;;
36191;SDS011;22233;42.708;23.360;2023-03-01T02:39:00;1.23;;;1.13;;
36191;SDS011;22233;42.708;23.360;2023-03-01T02:41:28;2.00;;;1.45;;
36191;SDS011;22233;42.708;23.360;2023-03-01T02:43:57;2.60;;;1.48;;
36191;SDS011;22233;42.708;23.360;2023-03-01T02:46:24;2.03;;;1.30;;
36191;SDS011;22233;42.708;23.360;2023-03-01T02:48:54;2.53;;;1.55;;
36191;SDS011;22233;42.708;23.360;2023-03-01T02:56:53;2.55;;;1.80;;
36191;SDS011;22233;42.708;23.360;2023-03-01T02:59:21;1.95;;;1.40;;
36191;SDS011;22233;42.708;23.360;2023-03-01T03:01:49;1.95;;;1.42;;
36191;SDS011;22233;42.708;23.360;2023-03-01T03:04:15;2.00;;;1.40;;
36191;SDS011;22233;42.708;23.360;2023-03-01T03:06:44;1.85;;;1.48;;
36191;SDS011;22233;42.708;23.360;2023-03-01T03:09:10;2.10;;;1.47;;
36191;SDS011;22233;42.708;23.360;2023-03-01T03:11:37;1.93;;;1.40;;
36191;SDS011;22233;42.708;23.360;2023-03-01T03:14:04;2.10;;;1.50;;
36191;SDS011;22233;42.708;23.360;2023-03-01T03:16:30;2.25;;;1.65;;
36191;SDS011;22233;42.708;23.360;2023-03-01T03:18:55;4.20;;;1.40;;
36191;SDS011;22233;42.708;23.360;2023-03-01T03:21:32;1.48;;;1.10;;
36191;SDS011;22233;42.708;23.360;2023-03-01T03:23:58;1.52;;;1.25;;
36191;SDS011;22233;42.708;23.360;2023-03-01T03:26:24;1.75;;;1.27;;
36191;SDS011;22233;42.708;23.360;2023-03-01T03:28:49;2.03;;;1.45;;
36191;SDS011;22233;42.708;23.360;2023-03-01T03:31:14;1.80;;;1.48;;
36191;SDS011;22233;42.708;23.360;2023-03-01T03:33:40;1.98;;;1.45;;
36191;SDS011;22233;42.708;23.360;2023-03-01T03:36:06;1.77;;;1.30;;
36191;SDS011;22233;42.708;23.360;2023-03-01T03:38:31;1.88;;;1.08;;
36191;SDS011;22233;42.708;23.360;2023-03-01T03:41:04;1.52;;;1.13;;
36191;SDS011;22233;42.708;23.360;2023-03-01T03:43:33;1.55;;;1.10;;
36191;SDS011;22233;42.708;23.360;2023-03-01T03:46:00;1.95;;;1.30;;
36191;SDS011;22233;42.708;23.360;2023-03-01T03:48:30;1.42;;;1.30;;
36191;SDS011;22233;42.708;23.360;2023-03-01T03:51:00;1.65;;;1.20;;
36191;SDS011;22233;42.708;23.360;2023-03-01T03:53:26;1.85;;;1.10;;
36191;SDS011;22233;42.708;23.360;2023-03-01T03:55:53;1.85;;;1.48;;
36191;SDS011;22233;42.708;23.360;2023-03-01T03:58:19;1.30;;;1.05;;
36191;SDS011;22233;42.708;23.360;2023-03-01T04:00:47;2.88;;;1.52;;
36191;SDS011;22233;42.708;23.360;2023-03-01T04:03:16;2.20;;;1.25;;
36191;SDS011;22233;42.708;23.360;2023-03-01T04:05:43;2.38;;;1.30;;
36191;SDS011;22233;42.708;23.360;2023-03-01T04:08:09;2.15;;;1.33;;
36191;SDS011;22233;42.708;23.360;2023-03-01T04:10:39;1.63;;;1.50;;
36191;SDS011;22233;42.708;23.360;2023-03-01T04:13:06;2.92;;;1.70;;
36191;SDS011;22233;42.708;23.360;2023-03-01T04:15:34;1.48;;;1.27;;
36191;SDS011;22233;42.708;23.360;2023-03-01T04:18:00;2.33;;;1.40;;
36191;SDS011;22233;42.708;23.360;2023-03-01T04:20:27;2.10;;;1.70;;
36191;SDS011;22233;42.708;23.360;2023-03-01T04:22:59;1.85;;;1.55;;
36191;SDS011;22233;42.708;23.360;2023-03-01T04:25:36;1.75;;;1.48;;
36191;SDS011;22233;42.708;23.360;2023-03-01T04:28:02;1.45;;;1.30;;
36191;SDS011;22233;42.708;23.360;2023-03-01T04:30:28;1.52;;;1.13;;
36191;SDS011;22233;42.708;23.360;2023-03-01T04:32:53;1.52;;;1.05;;
36191;SDS011;22233;42.708;23.360;2023-03-01T04:35:19;1.65;;;1.00;;
36191;SDS011;22233;42.708;23.360;2023-03-01T04:37:45;2.05;;;1.65;;
36191;SDS011;22233;42.708;23.360;2023-03-01T04:40:11;3.78;;;1.88;;
36191;SDS011;22233;42.708;23.360;2023-03-01T04:42:41;3.53;;;2.53;;
36191;SDS011;22233;42.708;23.360;2023-03-01T04:45:08;2.92;;;2.08;;
36191;SDS011;22233;42.708;23.360;2023-03-01T04:47:38;3.20;;;2.08;;
36191;SDS011;22233;42.708;23.360;2023-03-01T04:50:05;3.42;;;2.42;;
36191;SDS011;22233;42.708;23.360;2023-03-01T04:52:31;5.53;;;2.63;;
36191;SDS011;22233;42.708;23.360;2023-03-01T04:54:56;3.60;;;2.63;;
36191;SDS011;22233;42.708;23.360;2023-03-01T04:57:22;3.78;;;2.40;;
36191;SDS011;22233;42.708;23.360;2023-03-01T04:59:47;2.92;;;2.63;;
36191;SDS011;22233;42.708;23.360;2023-03-01T05:02:12;3.72;;;2.63;;
36191;SDS011;22233;42.708;23.360;2023-03-01T05:04:38;4.97;;;2.85;;
36191;SDS011;22233;42.708;23.360;2023-03-01T05:07:03;4.30;;;2.92;;
36191;SDS011;22233;42.708;23.360;2023-03-01T05:09:29;4.00;;;2.78;;
36191;SDS011;22233;42.708;23.360;2023-03-01T05:11:54;4.53;;;2.88;;
36191;SDS011;22233;42.708;23.360;2023-03-01T05:14:19;3.45;;;2.55;;
36191;SDS011;22233;42.708;23.360;2023-03-01T05:16:45;3.28;;;2.70;;
36191;SDS011;22233;42.708;23.360;2023-03-01T05:19:10;3.47;;;2.22;;
36191;SDS011;22233;42.708;23.360;2023-03-01T05:21:40;3.50;;;2.60;;
36191;SDS011;22233;42.708;23.360;2023-03-01T05:24:25;4.07;;;2.63;;
36191;SDS011;22233;42.708;23.360;2023-03-01T05:26:51;3.17;;;2.28;;
36191;SDS011;22233;42.708;23.360;2023-03-01T05:29:17;3.03;;;2.30;;
36191;SDS011;22233;42.708;23.360;2023-03-01T05:31:49;4.45;;;2.75;;
36191;SDS011;22233;42.708;23.360;2023-03-01T05:34:19;2.97;;;2.33;;
36191;SDS011;22233;42.708;23.360;2023-03-01T05:36:48;4.88;;;2.65;;
36191;SDS011;22233;42.708;23.360;2023-03-01T05:39:18;4.55;;;2.45;;
36191;SDS011;22233;42.708;23.360;2023-03-01T05:41:47;2.20;;;2.00;;
36191;SDS011;22233;42.708;23.360;2023-03-01T05:44:16;3.65;;;2.72;;
36191;SDS011;22233;42.708;23.360;2023-03-01T05:46:41;3.88;;;2.70;;
36191;SDS011;22233;42.708;23.360;2023-03-01T05:49:07;4.00;;;2.53;;
36191;SDS011;22233;42.708;23.360;2023-03-01T05:51:32;4.25;;;2.58;;
36191;SDS011;22233;42.708;23.360;2023-03-01T05:53:59;3.83;;;2.13;;
36191;SDS011;22233;42.708;23.360;2023-03-01T05:56:24;2.95;;;2.10;;
36191;SDS011;22233;42.708;23.360;2023-03-01T05:58:49;4.15;;;2.90;;
36191;SDS011;22233;42.708;23.360;2023-03-01T06:01:15;3.72;;;2.50;;
36191;SDS011;22233;42.708;23.360;2023-03-01T06:03:40;3.08;;;2.50;;
36191;SDS011;22233;42.708;23.360;2023-03-01T06:06:06;4.50;;;2.75;;
36191;SDS011;22233;42.708;23.360;2023-03-01T06:08:31;3.72;;;2.50;;
36191;SDS011;22233;42.708;23.360;2023-03-01T06:10:57;3.83;;;2.47;;
36191;SDS011;22233;42.708;23.360;2023-03-01T06:13:23;3.42;;;2.58;;
36191;SDS011;22233;42.708;23.360;2023-03-01T06:15:49;3.20;;;2.38;;
36191;SDS011;22233;42.708;23.360;2023-03-01T06:18:14;3.45;;;1.85;;
36191;SDS011;22233;42.708;23.360;2023-03-01T06:20:39;2.65;;;1.98;;
36191;SDS011;22233;42.708;23.360;2023-03-01T06:23:05;3.95;;;1.88;;
36191;SDS011;22233;42.708;23.360;2023-03-01T06:25:30;3.22;;;2.15;;
36191;SDS011;22233;42.708;23.360;2023-03-01T06:27:56;7.00;;;2.17;;
36191;SDS011;22233;42.708;23.360;2023-03-01T06:30:22;3.25;;;2.17;;
36191;SDS011;22233;42.708;23.360;2023-03-01T06:32:48;5.22;;;2.70;;
36191;SDS011;22233;42.708;23.360;2023-03-01T06:35:14;2.97;;;2.30;;
36191;SDS011;22233;42.708;23.360;2023-03-01T06:37:44;3.60;;;2.10;;
36191;SDS011;22233;42.708;23.360;2023-03-01T06:40:11;2.40;;;1.40;;
36191;SDS011;22233;42.708;23.360;2023-03-01T06:42:37;2.15;;;1.52;;
36191;SDS011;22233;42.708;23.360;2023-03-01T06:45:04;2.00;;;1.60;;
36191;SDS011;22233;42.708;23.360;2023-03-01T06:47:30;2.20;;;1.30;;
36191;SDS011;22233;42.708;23.360;2023-03-01T06:49:58;4.13;;;1.98;;
36191;SDS011;22233;42.708;23.360;2023-03-01T06:52:23;4.22;;;1.85;;
36191;SDS011;22233;42.708;23.360;2023-03-01T06:54:49;4.38;;;2.22;;
36191;SDS011;22233;42.708;23.360;2023-03-01T06:57:14;2.38;;;1.67;;
36191;SDS011;22233;42.708;23.360;2023-03-01T06:59:39;9.13;;;1.90;;
36191;SDS011;22233;42.708;23.360;2023-03-01T07:02:05;1.50;;;1.15;;
36191;SDS011;22233;42.708;23.360;2023-03-01T07:04:30;1.63;;;1.17;;
36191;SDS011;22233;42.708;23.360;2023-03-01T07:06:56;1.92;;;1.65;;
36191;SDS011;22233;42.708;23.360;2023-03-01T07:09:22;1.80;;;1.40;;
36191;SDS011;22233;42.708;23.360;2023-03-01T07:11:48;2.43;;;1.80;;
36191;SDS011;22233;42.708;23.360;2023-03-01T07:14:14;5.85;;;2.40;;
36191;SDS011;22233;42.708;23.360;2023-03-01T07:16:40;4.65;;;2.10;;
36191;SDS011;22233;42.708;23.360;2023-03-01T07:19:05;3.17;;;1.67;;
36191;SDS011;22233;42.708;23.360;2023-03-01T07:21:31;3.67;;;1.90;;
36191;SDS011;22233;42.708;23.360;2023-03-01T07:23:56;3.92;;;1.70;;
36191;SDS011;22233;42.708;23.360;2023-03-01T07:26:22;3.38;;;1.60;;
36191;SDS011;22233;42.708;23.360;2023-03-01T07:28:47;2.20;;;1.60;;
36191;SDS011;22233;42.708;23.360;2023-03-01T07:31:13;3.67;;;1.85;;
36191;SDS011;22233;42.708;23.360;2023-03-01T07:33:38;2.63;;;1.60;;
36191;SDS011;22233;42.708;23.360;2023-03-01T07:36:04;2.13;;;1.67;;
36191;SDS011;22233;42.708;23.360;2023-03-01T07:38:30;4.25;;;1.98;;
36191;SDS011;22233;42.708;23.360;2023-03-01T07:40:59;4.90;;;1.55;;
36191;SDS011;22233;42.708;23.360;2023-03-01T07:43:27;2.85;;;1.60;;
36191;SDS011;22233;42.708;23.360;2023-03-01T07:45:53;5.85;;;1.85;;
36191;SDS011;22233;42.708;23.360;2023-03-01T07:48:19;2.22;;;1.30;;
36191;SDS011;22233;42.708;23.360;2023-03-01T07:50:44;1.80;;;1.48;;
36191;SDS011;22233;42.708;23.360;2023-03-01T07:53:09;2.20;;;1.25;;
36191;SDS011;22233;42.708;23.360;2023-03-01T07:55:35;2.25;;;1.50;;
36191;SDS011;22233;42.708;23.360;2023-03-01T07:58:01;4.32;;;1.40;;
36191;SDS011;22233;42.708;23.360;2023-03-01T08:00:27;2.70;;;1.55;;
36191;SDS011;22233;42.708;23.360;2023-03-01T08:02:52;3.13;;;1.40;;
36191;SDS011;22233;42.708;23.360;2023-03-01T08:05:18;4.60;;;1.35;;
36191;SDS011;22233;42.708;23.360;2023-03-01T08:07:43;1.98;;;1.20;;
36191;SDS011;22233;42.708;23.360;2023-03-01T08:10:09;4.53;;;1.50;;
36191;SDS011;22233;42.708;23.360;2023-03-01T08:12:35;2.22;;;1.23;;
36191;SDS011;22233;42.708;23.360;2023-03-01T08:15:00;3.63;;;1.35;;
36191;SDS011;22233;42.708;23.360;2023-03-01T08:17:25;3.97;;;1.40;;
36191;SDS011;22233;42.708;23.360;2023-03-01T08:19:51;1.88;;;1.20;;
36191;SDS011;22233;42.708;23.360;2023-03-01T08:22:16;1.83;;;1.38;;
36191;SDS011;22233;42.708;23.360;2023-03-01T08:24:42;2.90;;;1.38;;
36191;SDS011;22233;42.708;23.360;2023-03-01T08:27:07;3.08;;;1.35;;
36191;SDS011;22233;42.708;23.360;2023-03-01T08:29:33;4.72;;;1.88;;
36191;SDS011;22233;42.708;23.360;2023-03-01T08:31:59;3.25;;;1.65;;
36191;SDS011;22233;42.708;23.360;2023-03-01T08:34:25;2.38;;;1.80;;
36191;SDS011;22233;42.708;23.360;2023-03-01T08:36:51;3.85;;;1.40;;
36191;SDS011;22233;42.708;23.360;2023-03-01T08:39:17;1.90;;;1.50;;
36191;SDS011;22233;42.708;23.360;2023-03-01T08:41:44;2.00;;;1.80;;
36191;SDS011;22233;42.708;23.360;2023-03-01T08:44:11;6.53;;;1.85;;
36191;SDS011;22233;42.708;23.360;2023-03-01T08:46:38;2.05;;;1.50;;
36191;SDS011;22233;42.708;23.360;2023-03-01T08:49:06;2.22;;;1.52;;
36191;SDS011;22233;42.708;23.360;2023-03-01T08:51:33;2.47;;;1.63;;
36191;SDS011;22233;42.708;23.360;2023-03-01T08:54:05;2.08;;;1.70;;
36191;SDS011;22233;42.708;23.360;2023-03-01T08:56:31;2.88;;;1.65;;
36191;SDS011;22233;42.708;23.360;2023-03-01T08:58:57;2.42;;;1.40;;
36191;SDS011;22233;42.708;23.360;2023-03-01T09:01:22;2.22;;;1.30;;
36191;SDS011;22233;42.708;23.360;2023-03-01T09:03:48;2.60;;;1.60;;
36191;SDS011;22233;42.708;23.360;2023-03-01T09:06:13;1.80;;;1.42;;
36191;SDS011;22233;42.708;23.360;2023-03-01T09:08:41;2.53;;;1.77;;
36191;SDS011;22233;42.708;23.360;2023-03-01T09:11:09;4.50;;;1.58;;
36191;SDS011;22233;42.708;23.360;2023-03-01T09:13:36;2.15;;;1.63;;
36191;SDS011;22233;42.708;23.360;2023-03-01T09:16:02;1.63;;;1.48;;
36191;SDS011;22233;42.708;23.360;2023-03-01T09:18:28;2.90;;;1.42;;
36191;SDS011;22233;42.708;23.360;2023-03-01T09:21:03;2.67;;;1.45;;
36191;SDS011;22233;42.708;23.360;2023-03-01T09:23:37;1.42;;;1.20;;
36191;SDS011;22233;42.708;23.360;2023-03-01T09:26:12;1.70;;;1.50;;
36191;SDS011;22233;42.708;23.360;2023-03-01T09:28:46;2.85;;;1.50;;
36191;SDS011;22233;42.708;23.360;2023-03-01T09:31:12;2.53;;;1.58;;
36191;SDS011;22233;42.708;23.360;2023-03-01T09:33:39;3.00;;;1.90;;
36191;SDS011;22233;42.708;23.360;2023-03-01T09:36:07;1.48;;;1.33;;
36191;SDS011;22233;42.708;23.360;2023-03-01T09:38:37;1.42;;;1.30;;
36191;SDS011;22233;42.708;23.360;2023-03-01T09:41:02;1.42;;;1.05;;
36191;SDS011;22233;42.708;23.360;2023-03-01T09:43:55;2.10;;;1.17;;
36191;SDS011;22233;42.708;23.360;2023-03-01T09:46:29;2.30;;;1.38;;
36191;SDS011;22233;42.708;23.360;2023-03-01T09:49:06;2.25;;;1.60;;
36191;SDS011;22233;42.708;23.360;2023-03-01T09:51:37;2.55;;;1.08;;
36191;SDS011;22233;42.708;23.360;2023-03-01T09:54:03;2.50;;;1.15;;
36191;SDS011;22233;42.708;23.360;2023-03-01T10:01:48;1.60;;;0.80;;
36191;SDS011;22233;42.708;23.360;2023-03-01T10:04:57;2.10;;;1.10;;
36191;SDS011;22233;42.708;23.360;2023-03-01T10:07:52;1.00;;;0.80;;
36191;SDS011;22233;42.708;23.360;2023-03-01T10:10:46;1.45;;;1.00;;
36191;SDS011;22233;42.708;23.360;2023-03-01T10:13:25;1.27;;;1.05;;
36191;SDS011;22233;42.708;23.360;2023-03-01T10:15:59;1.75;;;1.25;;
36191;SDS011;22233;42.708;23.360;2023-03-01T10:18:35;2.83;;;0.98;;
36191;SDS011;22233;42.708;23.360;2023-03-01T10:21:07;2.30;;;0.82;;
36191;SDS011;22233;42.708;23.360;2023-03-01T10:23:39;2.13;;;0.85;;
36191;SDS011;22233;42.708;23.360;2023-03-01T10:31:21;2.50;;;1.10;;
36191;SDS011;22233;42.708;23.360;2023-03-01T10:33:53;1.67;;;1.08;;
36191;SDS011;22233;42.708;23.360;2023-03-01T10:36:20;1.63;;;0.82;;
36191;SDS011;22233;42.708;23.360;2023-03-01T10:38:56;0.80;;;0.50;;
36191;SDS011;22233;42.708;23.360;2023-03-01T10:41:23;0.93;;;0.60;;
36191;SDS011;22233;42.708;23.360;2023-03-01T10:43:58;0.85;;;0.60;;
36191;SDS011;22233;42.708;23.360;2023-03-01T10:46:32;1.00;;;0.45;;
36191;SDS011;22233;42.708;23.360;2023-03-01T10:51:29;2.05;;;0.70;;
36191;SDS011;22233;42.708;23.360;2023-03-01T10:53:55;3.63;;;0.90;;
36191;SDS011;22233;42.708;23.360;2023-03-01T10:56:20;1.63;;;0.90;;
36191;SDS011;22233;42.708;23.360;2023-03-01T11:01:28;1.00;;;0.77;;
36191;SDS011;22233;42.708;23.360;2023-03-01T11:06:32;1.42;;;0.75;;
36191;SDS011;22233;42.708;23.360;2023-03-01T11:11:51;1.52;;;1.08;;
36191;SDS011;22233;42.708;23.360;2023-03-01T11:14:20;0.98;;;0.88;;
36191;SDS011;22233;42.708;23.360;2023-03-01T11:19:43;1.20;;;0.80;;
36191;SDS011;22233;42.708;23.360;2023-03-01T11:22:25;0.88;;;0.60;;
36191;SDS011;22233;42.708;23.360;2023-03-01T11:24:53;1.02;;;0.70;;
36191;SDS011;22233;42.708;23.360;2023-03-01T11:27:28;2.20;;;0.85;;
36191;SDS011;22233;42.708;23.360;2023-03-01T11:30:04;1.23;;;0.70;;
36191;SDS011;22233;42.708;23.360;2023-03-01T11:32:39;3.25;;;0.75;;
36191;SDS011;22233;42.708;23.360;2023-03-01T11:37:49;1.58;;;0.70;;
36191;SDS011;22233;42.708;23.360;2023-03-01T11:40:26;0.77;;;0.60;;
36191;SDS011;22233;42.708;23.360;2023-03-01T11:45:29;0.73;;;0.70;;
36191;SDS011;22233;42.708;23.360;2023-03-01T11:48:17;0.63;;;0.40;;
36191;SDS011;22233;42.708;23.360;2023-03-01T11:50:52;2.53;;;0.93;;
36191;SDS011;22233;42.708;23.360;2023-03-01T12:10:33;1.25;;;0.70;;
36191;SDS011;22233;42.708;23.360;2023-03-01T12:15:51;3.17;;;1.60;;
36191;SDS011;22233;42.708;23.360;2023-03-01T12:38:02;3.30;;;1.33;;
36191;SDS011;22233;42.708;23.360;2023-03-01T12:40:43;2.92;;;1.42;;
36191;SDS011;22233;42.708;23.360;2023-03-01T12:43:47;4.07;;;1.60;;
36191;SDS011;22233;42.708;23.360;2023-03-01T12:46:44;2.20;;;1.42;;
36191;SDS011;22233;42.708;23.360;2023-03-01T12:49:37;2.53;;;1.52;;
36191;SDS011;22233;42.708;23.360;2023-03-01T12:52:29;2.47;;;1.20;;
36191;SDS011;22233;42.708;23.360;2023-03-01T12:55:06;3.50;;;1.27;;
36191;SDS011;22233;42.708;23.360;2023-03-01T12:57:46;1.95;;;1.17;;
36191;SDS011;22233;42.708;23.360;2023-03-01T13:12:00;1.45;;;0.95;;
36191;SDS011;22233;42.708;23.360;2023-03-01T13:16:52;2.75;;;1.30;;
36191;SDS011;22233;42.708;23.360;2023-03-01T13:19:19;2.95;;;1.50;;
36191;SDS011;22233;42.708;23.360;2023-03-01T13:21:50;1.58;;;1.00;;
36191;SDS011;22233;42.708;23.360;2023-03-01T13:29:32;4.72;;;1.30;;
36191;SDS011;22233;42.708;23.360;2023-03-01T13:32:26;2.40;;;1.50;;
36191;SDS011;22233;42.708;23.360;2023-03-01T13:37:40;3.13;;;1.38;;
36191;SDS011;22233;42.708;23.360;2023-03-01T13:42:42;2.95;;;2.00;;
36191;SDS011;22233;42.708;23.360;2023-03-01T13:45:20;5.63;;;1.70;;
36191;SDS011;22233;42.708;23.360;2023-03-01T13:47:47;4.13;;;1.67;;
36191;SDS011;22233;42.708;23.360;2023-03-01T13:50:22;2.67;;;1.45;;
36191;SDS011;22233;42.708;23.360;2023-03-01T13:52:51;2.97;;;1.27;;
36191;SDS011;22233;42.708;23.360;2023-03-01T13:55:43;2.60;;;1.40;;
36191;SDS011;22233;42.708;23.360;2023-03-01T13:58:20;3.08;;;2.00;;
36191;SDS011;22233;42.708;23.360;2023-03-01T14:00:54;3.78;;;1.70;;
36191;SDS011;22233;42.708;23.360;2023-03-01T14:03:28;4.70;;;1.42;;
36191;SDS011;22233;42.708;23.360;2023-03-01T14:06:04;2.47;;;1.65;;
36191;SDS011;22233;42.708;23.360;2023-03-01T14:08:32;3.10;;;1.77;;
36191;SDS011;22233;42.708;23.360;2023-03-01T14:19:21;4.38;;;2.30;;
36191;SDS011;22233;42.708;23.360;2023-03-01T14:24:55;2.38;;;1.58;;
36191;SDS011;22233;42.708;23.360;2023-03-01T14:27:28;3.58;;;2.00;;
36191;SDS011;22233;42.708;23.360;2023-03-01T14:30:02;3.70;;;1.83;;
36191;SDS011;22233;42.708;23.360;2023-03-01T14:32:35;4.07;;;1.67;;
36191;SDS011;22233;42.708;23.360;2023-03-01T14:35:00;3.10;;;1.65;;
36191;SDS011;22233;42.708;23.360;2023-03-01T14:37:30;3.03;;;1.42;;
36191;SDS011;22233;42.708;23.360;2023-03-01T14:39:58;4.55;;;1.73;;
36191;SDS011;22233;42.708;23.360;2023-03-01T14:42:27;3.45;;;1.52;;
36191;SDS011;22233;42.708;23.360;2023-03-01T14:44:55;2.85;;;1.40;;
36191;SDS011;22233;42.708;23.360;2023-03-01T14:47:32;3.30;;;2.20;;
36191;SDS011;22233;42.708;23.360;2023-03-01T14:50:05;2.33;;;1.42;;
36191;SDS011;22233;42.708;23.360;2023-03-01T14:52:57;3.30;;;1.73;;
36191;SDS011;22233;42.708;23.360;2023-03-01T14:55:26;3.05;;;1.90;;
36191;SDS011;22233;42.708;23.360;2023-03-01T14:57:55;7.72;;;2.42;;
36191;SDS011;22233;42.708;23.360;2023-03-01T15:00:23;5.35;;;1.58;;
36191;SDS011;22233;42.708;23.360;2023-03-01T15:02:52;5.22;;;2.28;;
36191;SDS011;22233;42.708;23.360;2023-03-01T15:05:22;5.63;;;2.58;;
36191;SDS011;22233;42.708;23.360;2023-03-01T15:07:52;4.05;;;2.15;;
36191;SDS011;22233;42.708;23.360;2023-03-01T15:10:23;3.05;;;2.30;;
36191;SDS011;22233;42.708;23.360;2023-03-01T15:12:51;6.43;;;3.63;;
36191;SDS011;22233;42.708;23.360;2023-03-01T15:15:21;5.15;;;2.35;;
36191;SDS011;22233;42.708;23.360;2023-03-01T15:18:05;3.70;;;2.15;;
36191;SDS011;22233;42.708;23.360;2023-03-01T15:20:49;5.18;;;3.15;;
36191;SDS011;22233;42.708;23.360;2023-03-01T15:25:47;7.57;;;5.50;;
36191;SDS011;22233;42.708;23.360;2023-03-01T15:28:21;7.13;;;4.15;;
36191;SDS011;22233;42.708;23.360;2023-03-01T15:30:57;5.78;;;3.10;;
36191;SDS011;22233;42.708;23.360;2023-03-01T15:35:55;8.40;;;3.38;;
36191;SDS011;22233;42.708;23.360;2023-03-01T15:40:57;4.75;;;2.55;;
36191;SDS011;22233;42.708;23.360;2023-03-01T15:43:38;5.30;;;2.42;;
36191;SDS011;22233;42.708;23.360;2023-03-01T15:48:57;5.57;;;2.70;;
36191;SDS011;22233;42.708;23.360;2023-03-01T15:51:28;7.43;;;3.22;;
36191;SDS011;22233;42.708;23.360;2023-03-01T15:53:58;4.45;;;2.20;;
36191;SDS011;22233;42.708;23.360;2023-03-01T15:56:25;5.38;;;2.33;;
36191;SDS011;22233;42.708;23.360;2023-03-01T15:58:50;4.65;;;2.50;;
36191;SDS011;22233;42.708;23.360;2023-03-01T16:01:16;10.15;;;2.97;;
36191;SDS011;22233;42.708;23.360;2023-03-01T16:03:42;6.47;;;2.90;;
36191;SDS011;22233;42.708;23.360;2023-03-01T16:06:11;3.30;;;2.30;;
36191;SDS011;22233;42.708;23.360;2023-03-01T16:08:37;7.43;;;2.53;;
36191;SDS011;22233;42.708;23.360;2023-03-01T16:11:03;5.32;;;2.90;;
36191;SDS011;22233;42.708;23.360;2023-03-01T16:15:56;6.25;;;3.25;;
36191;SDS011;22233;42.708;23.360;2023-03-01T16:18:22;6.30;;;3.30;;
36191;SDS011;22233;42.708;23.360;2023-03-01T16:20:47;7.63;;;3.47;;
36191;SDS011;22233;42.708;23.360;2023-03-01T16:23:14;6.47;;;3.63;;
36191;SDS011;22233;42.708;23.360;2023-03-01T16:25:39;8.25;;;4.15;;
36191;SDS011;22233;42.708;23.360;2023-03-01T16:28:05;9.65;;;4.43;;
36191;SDS011;22233;42.708;23.360;2023-03-01T16:30:34;6.70;;;3.80;;
36191;SDS011;22233;42.708;23.360;2023-03-01T16:33:00;7.70;;;4.23;;
36191;SDS011;22233;42.708;23.360;2023-03-01T16:35:26;7.00;;;3.20;;
36191;SDS011;22233;42.708;23.360;2023-03-01T16:37:52;4.63;;;3.08;;
36191;SDS011;22233;42.708;23.360;2023-03-01T16:42:47;7.10;;;3.15;;
36191;SDS011;22233;42.708;23.360;2023-03-01T16:45:13;6.45;;;3.50;;
36191;SDS011;22233;42.708;23.360;2023-03-01T16:47:38;7.25;;;4.13;;
36191;SDS011;22233;42.708;23.360;2023-03-01T16:50:04;9.40;;;3.85;;
36191;SDS011;22233;42.708;23.360;2023-03-01T16:52:30;5.30;;;3.45;;
36191;SDS011;22233;42.708;23.360;2023-03-01T16:54:55;7.60;;;4.30;;
36191;SDS011;22233;42.708;23.360;2023-03-01T16:57:20;6.30;;;3.70;;